createdAt,value
2023-05-24T00:00:13.277Z,5.37
2023-05-24T00:02:43.257Z,5.37
2023-05-24T00:05:12.723Z,5.13
2023-05-24T00:07:39.714Z,5.07
2023-05-24T00:10:07.374Z,6.17
2023-05-24T00:12:34.347Z,8.17
2023-05-24T00:15:01.263Z,5.97
2023-05-24T00:17:30.405Z,5.70
2023-05-24T00:19:57.406Z,6.10
2023-05-24T00:22:25.156Z,5.00
2023-05-24T00:24:52.265Z,9.30
2023-05-24T00:27:19.386Z,5.93
2023-05-24T00:29:46.244Z,4.90
2023-05-24T00:32:13.448Z,7.10
2023-05-24T00:34:40.526Z,5.67
2023-05-24T00:37:07.689Z,8.33
2023-05-24T00:39:34.513Z,9.03
2023-05-24T00:42:02.284Z,4.90
2023-05-24T00:44:29.673Z,9.17
2023-05-24T00:46:56.653Z,4.73
2023-05-24T00:49:24.143Z,7.10
2023-05-24T00:51:52.842Z,6.73
2023-05-24T00:54:20.629Z,5.67
2023-05-24T00:56:48.813Z,6.37
2023-05-24T00:59:15.710Z,5.23
2023-05-24T01:01:42.854Z,6.90
2023-05-24T01:04:09.756Z,7.23
2023-05-24T01:06:45.050Z,5.27
2023-05-24T01:09:39.974Z,8.67
2023-05-24T01:12:20.609Z,4.17
2023-05-24T01:15:16.047Z,4.60
2023-05-24T01:18:13.847Z,9.87
2023-05-24T01:20:41.965Z,5.20
2023-05-24T01:23:18.033Z,5.30
2023-05-24T01:25:59.559Z,8.57
2023-05-24T01:28:27.648Z,6.00
2023-05-24T01:30:55.920Z,5.60
2023-05-24T01:33:22.889Z,7.17
2023-05-24T01:35:49.833Z,6.33
2023-05-24T01:38:16.765Z,9.03
2023-05-24T01:40:44.173Z,11.53
2023-05-24T01:43:40.929Z,8.27
2023-05-24T01:46:36.412Z,7.10
2023-05-24T01:49:21.801Z,5.53
2023-05-24T01:52:00.309Z,6.30
2023-05-24T01:54:31.708Z,6.60
2023-05-24T01:56:59.652Z,6.73
2023-05-24T01:59:29.134Z,7.10
2023-05-24T02:01:56.760Z,9.60
2023-05-24T02:04:25.135Z,6.50
2023-05-24T02:06:51.983Z,9.43
2023-05-24T02:09:18.883Z,8.93
2023-05-24T02:11:45.748Z,5.80
2023-05-24T02:14:13.419Z,6.77
2023-05-24T02:16:42.708Z,10.07
2023-05-24T02:19:09.868Z,9.03
2023-05-24T02:21:36.683Z,7.70
2023-05-24T02:24:03.576Z,7.80
2023-05-24T02:26:30.692Z,9.87
2023-05-24T02:28:57.564Z,8.30
2023-05-24T02:31:25.890Z,11.73
2023-05-24T02:33:52.711Z,8.37
2023-05-24T02:36:19.488Z,7.17
2023-05-24T02:38:46.692Z,4.33
2023-05-24T02:41:17.899Z,10.80
2023-05-24T02:43:45.630Z,9.23
2023-05-24T02:46:12.787Z,6.80
2023-05-24T02:48:39.832Z,5.77
2023-05-24T02:51:07.049Z,14.63
2023-05-24T02:53:33.949Z,8.07
2023-05-24T02:56:01.091Z,7.30
2023-05-24T02:58:30.843Z,10.93
2023-05-24T03:00:57.633Z,7.23
2023-05-24T03:03:24.625Z,13.60
2023-05-24T03:05:51.472Z,7.07
2023-05-24T03:08:18.362Z,7.63
2023-05-24T03:10:45.189Z,8.70
2023-05-24T03:13:11.998Z,7.17
2023-05-24T03:15:38.883Z,7.27
2023-05-24T03:18:06.053Z,6.27
2023-05-24T03:20:33.987Z,12.00
2023-05-24T03:23:01.080Z,13.93
2023-05-24T03:25:27.956Z,6.90
2023-05-24T03:27:55.564Z,9.33
2023-05-24T03:30:22.298Z,7.03
2023-05-24T03:32:49.134Z,7.03
2023-05-24T03:35:15.919Z,11.03
2023-05-24T03:37:42.781Z,8.50
2023-05-24T03:40:10.200Z,10.97
2023-05-24T03:42:37.067Z,9.50
2023-05-24T03:45:05.259Z,15.60
2023-05-24T03:47:32.253Z,13.60
2023-05-24T03:49:59.236Z,15.13
2023-05-24T03:52:26.193Z,7.40
2023-05-24T03:54:53.066Z,8.80
2023-05-24T03:57:20.333Z,12.07
2023-05-24T03:59:47.102Z,35.40
2023-05-24T04:02:13.987Z,27.83
2023-05-24T04:04:40.792Z,38.53
2023-05-24T04:07:08.067Z,47.83
2023-05-24T04:09:35.339Z,14.33
2023-05-24T04:12:02.210Z,33.70
2023-05-24T04:14:29.066Z,39.67
2023-05-24T04:16:57.650Z,59.17
2023-05-24T04:19:24.740Z,40.00
2023-05-24T04:21:51.575Z,21.37
2023-05-24T04:24:18.369Z,14.90
2023-05-24T04:26:45.675Z,8.07
2023-05-24T04:29:13.051Z,9.23
2023-05-24T04:31:43.352Z,9.67
2023-05-24T04:34:13.156Z,8.90
2023-05-24T04:36:41.284Z,10.10
2023-05-24T04:39:08.245Z,12.50
2023-05-24T04:41:38.724Z,9.60
2023-05-24T04:44:05.677Z,8.60
2023-05-24T04:46:32.585Z,7.43
2023-05-24T04:48:59.642Z,10.00
2023-05-24T04:51:26.478Z,12.67
2023-05-24T04:53:53.409Z,6.27
2023-05-24T04:56:20.243Z,7.53
2023-05-24T04:58:48.313Z,11.80
2023-05-24T05:01:15.436Z,11.27
2023-05-24T05:03:43.267Z,11.20
2023-05-24T05:06:10.590Z,18.27
2023-05-24T05:08:37.519Z,12.40
2023-05-24T05:11:04.307Z,12.27
2023-05-24T05:13:31.254Z,10.00
2023-05-24T05:15:58.140Z,9.80
2023-05-24T05:18:25.078Z,5.57
2023-05-24T05:20:52.499Z,11.83
2023-05-24T05:23:19.460Z,9.47
2023-05-24T05:25:46.249Z,6.87
2023-05-24T05:28:13.347Z,12.13
2023-05-24T05:30:40.276Z,9.40
2023-05-24T05:33:07.357Z,11.20
2023-05-24T05:35:34.366Z,15.33
2023-05-24T05:38:01.574Z,12.40
2023-05-24T05:40:28.709Z,9.77
2023-05-24T05:42:55.719Z,10.30
2023-05-24T05:45:22.676Z,11.73
2023-05-24T05:47:49.606Z,13.43
2023-05-24T05:50:16.656Z,13.30
2023-05-24T05:52:43.472Z,12.80
2023-05-24T05:55:12.215Z,14.37
2023-05-24T05:57:39.232Z,12.67
2023-05-24T06:00:07.136Z,7.20
2023-05-24T06:02:34.185Z,11.23
2023-05-24T06:05:01.202Z,12.17
2023-05-24T06:07:27.991Z,11.23
2023-05-24T06:09:54.833Z,11.83
2023-05-24T06:12:21.656Z,12.67
2023-05-24T06:14:50.695Z,10.13
2023-05-24T06:17:18.697Z,9.53
2023-05-24T06:19:45.950Z,11.23
2023-05-24T06:22:13.192Z,15.90
2023-05-24T06:24:40.046Z,10.70
2023-05-24T06:27:06.983Z,7.93
2023-05-24T06:29:34.158Z,18.00
2023-05-24T06:32:01.406Z,10.37
2023-05-24T06:34:29.808Z,6.80
2023-05-24T06:36:57.169Z,12.43
2023-05-24T06:39:25.438Z,12.53
2023-05-24T06:41:53.908Z,7.07
2023-05-24T06:44:25.249Z,13.53
2023-05-24T06:46:52.306Z,10.83
2023-05-24T06:49:19.810Z,12.00
2023-05-24T06:51:48.788Z,12.43
2023-05-24T06:54:15.859Z,11.27
2023-05-24T06:56:42.798Z,10.47
2023-05-24T06:59:09.640Z,7.53
2023-05-24T07:01:39.796Z,9.03
2023-05-24T07:04:07.078Z,12.50
2023-05-24T07:06:34.338Z,7.10
2023-05-24T07:09:04.563Z,13.57
2023-05-24T07:11:32.079Z,10.80
2023-05-24T07:13:59.185Z,8.30
2023-05-24T07:16:26.173Z,15.67
2023-05-24T07:18:55.066Z,12.83
2023-05-24T07:21:22.487Z,6.97
2023-05-24T07:23:51.387Z,14.43
2023-05-24T07:26:18.359Z,11.13
2023-05-24T07:28:45.233Z,6.20
2023-05-24T07:31:12.241Z,11.93
2023-05-24T07:33:39.544Z,8.37
2023-05-24T07:36:07.154Z,9.90
2023-05-24T07:38:35.052Z,11.33
2023-05-24T07:41:04.651Z,13.53
2023-05-24T07:43:31.461Z,11.37
2023-05-24T07:45:58.480Z,10.43
2023-05-24T07:48:26.046Z,8.67
2023-05-24T07:50:53.045Z,9.63
2023-05-24T07:53:20.077Z,10.10
2023-05-24T07:55:47.295Z,10.50
2023-05-24T07:58:14.318Z,10.10
2023-05-24T08:00:41.949Z,14.17
2023-05-24T08:03:09.085Z,11.87
2023-05-24T08:05:35.966Z,7.83
2023-05-24T08:08:02.937Z,10.73
2023-05-24T08:10:29.892Z,7.73
2023-05-24T08:12:56.850Z,16.43
2023-05-24T08:15:23.692Z,11.83
2023-05-24T08:17:50.579Z,25.93
2023-05-24T08:20:18.071Z,12.57
2023-05-24T08:22:45.136Z,20.07
2023-05-24T08:25:12.138Z,20.83
2023-05-24T08:27:39.131Z,15.47
2023-05-24T08:30:08.536Z,12.93
2023-05-24T08:32:36.429Z,15.07
2023-05-24T08:35:19.591Z,10.87
2023-05-24T08:37:49.363Z,28.60
2023-05-24T08:40:17.254Z,42.60
2023-05-24T08:42:46.044Z,44.83
2023-05-24T08:45:14.829Z,15.13
2023-05-24T08:47:42.798Z,11.40
2023-05-24T08:50:10.834Z,23.20
2023-05-24T08:52:39.968Z,20.47
2023-05-24T08:55:07.675Z,9.63
2023-05-24T08:57:38.165Z,10.33
2023-05-24T09:00:11.555Z,9.57
2023-05-24T09:02:40.184Z,11.30
2023-05-24T09:05:10.912Z,14.27
2023-05-24T09:07:38.274Z,12.07
2023-05-24T09:10:07.800Z,11.07
2023-05-24T09:12:38.593Z,14.87
2023-05-24T09:15:07.625Z,9.37
2023-05-24T09:17:38.892Z,13.63
2023-05-24T09:20:09.141Z,7.77
2023-05-24T09:22:40.800Z,10.63
2023-05-24T09:25:11.010Z,10.63
2023-05-24T09:27:38.528Z,14.27
2023-05-24T09:30:10.382Z,11.23
2023-05-24T09:32:38.318Z,12.17
2023-05-24T09:35:09.635Z,10.90
2023-05-24T09:37:38.861Z,10.87
2023-05-24T09:40:07.275Z,10.30
2023-05-24T09:42:34.193Z,6.27
2023-05-24T09:45:01.906Z,11.83
2023-05-24T09:47:30.632Z,10.60
2023-05-24T09:49:58.096Z,12.63
2023-05-24T09:52:25.154Z,12.17
2023-05-24T09:54:52.533Z,12.90
2023-05-24T09:57:22.894Z,13.80
2023-05-24T09:59:52.609Z,12.13
2023-05-24T10:02:23.004Z,10.57
2023-05-24T10:04:57.860Z,12.27
2023-05-24T10:07:25.491Z,9.67
2023-05-24T10:09:52.793Z,10.33
2023-05-24T10:12:23.310Z,12.70
2023-05-24T10:14:52.065Z,14.33
2023-05-24T10:17:19.135Z,12.60
2023-05-24T10:19:46.326Z,9.93
2023-05-24T10:22:16.144Z,12.57
2023-05-24T10:24:53.791Z,7.67
2023-05-24T10:27:24.788Z,9.50
2023-05-24T10:30:06.072Z,8.07
2023-05-24T10:32:39.388Z,8.67
2023-05-24T10:35:07.700Z,12.23
2023-05-24T10:37:35.894Z,10.00
2023-05-24T10:40:04.334Z,13.87
2023-05-24T10:42:32.561Z,8.97
2023-05-24T10:44:59.536Z,11.80
2023-05-24T10:47:29.779Z,11.70
2023-05-24T10:50:05.226Z,11.73
2023-05-24T10:52:36.326Z,10.80
2023-05-24T10:55:09.764Z,9.43
2023-05-24T10:57:38.606Z,13.20
2023-05-24T11:00:40.996Z,11.27
2023-05-24T11:03:09.664Z,7.87
2023-05-24T11:05:51.932Z,12.70
2023-05-24T11:08:33.523Z,10.73
2023-05-24T11:13:44.169Z,13.97
2023-05-24T11:16:37.866Z,16.20
2023-05-24T11:19:16.079Z,14.33
2023-05-24T11:21:45.311Z,10.67
2023-05-24T11:24:12.766Z,10.73
2023-05-24T11:26:40.008Z,10.63
2023-05-24T11:29:08.027Z,10.90
2023-05-24T11:31:42.404Z,12.97
2023-05-24T11:34:11.127Z,8.83
2023-05-24T11:36:37.985Z,12.27
2023-05-24T11:39:09.414Z,9.47
2023-05-24T11:41:38.831Z,9.37
2023-05-24T11:44:09.058Z,14.93
2023-05-24T11:46:36.162Z,15.77
2023-05-24T11:49:03.874Z,10.30
2023-05-24T11:51:32.354Z,13.57
2023-05-24T11:54:00.271Z,11.63
2023-05-24T11:56:30.955Z,9.37
2023-05-24T11:59:10.007Z,6.93
2023-05-24T12:01:38.364Z,13.90
2023-05-24T12:04:10.180Z,10.47
2023-05-24T12:06:39.809Z,11.30
2023-05-24T12:09:08.821Z,10.40
2023-05-24T12:11:39.968Z,10.57
2023-05-24T12:14:20.565Z,11.50
2023-05-24T12:16:47.960Z,12.60
2023-05-24T12:19:32.320Z,9.87
2023-05-24T12:22:05.130Z,10.73
2023-05-24T12:24:32.592Z,12.27
2023-05-24T12:27:08.017Z,9.87
2023-05-24T12:29:36.963Z,11.63
2023-05-24T12:32:04.481Z,10.40
2023-05-24T12:34:32.253Z,12.57
2023-05-24T12:37:00.284Z,17.30
2023-05-24T12:39:31.876Z,10.67
2023-05-24T12:42:01.958Z,8.20
2023-05-24T12:44:39.482Z,9.57
2023-05-24T12:47:08.518Z,9.63
2023-05-24T12:49:35.903Z,9.93
2023-05-24T12:52:04.149Z,8.83
2023-05-24T12:54:31.595Z,10.20
2023-05-24T12:57:02.867Z,5.87
2023-05-24T12:59:29.921Z,10.20
2023-05-24T13:01:57.025Z,9.60
2023-05-24T13:04:26.367Z,7.93
2023-05-24T13:06:53.462Z,13.60
2023-05-24T13:09:22.540Z,7.17
2023-05-24T13:11:49.729Z,8.30
2023-05-24T13:14:17.204Z,8.47
2023-05-24T13:16:44.417Z,10.63
2023-05-24T13:19:11.890Z,8.47
2023-05-24T13:21:39.179Z,9.50
2023-05-24T13:24:07.712Z,10.13
2023-05-24T13:26:38.274Z,7.17
2023-05-24T13:31:37.909Z,11.50
2023-05-24T13:34:05.540Z,8.33
2023-05-24T13:36:32.794Z,6.37
2023-05-24T13:41:31.708Z,6.10
2023-05-24T13:43:58.581Z,5.70
2023-05-24T13:46:25.525Z,8.40
2023-05-24T13:48:52.655Z,11.03
2023-05-24T13:51:20.006Z,7.03
2023-05-24T13:53:48.153Z,7.03
2023-05-24T13:56:15.909Z,9.50
2023-05-24T13:58:42.925Z,12.60
2023-05-24T14:01:10.430Z,6.10
2023-05-24T14:03:37.368Z,4.60
2023-05-24T14:06:06.490Z,4.53
2023-05-24T14:08:33.842Z,3.83
2023-05-24T14:11:00.797Z,6.17
2023-05-24T14:15:57.452Z,5.03
2023-05-24T14:18:24.259Z,5.23
2023-05-24T14:20:51.169Z,7.00
2023-05-24T14:23:18.369Z,7.90
2023-05-24T14:25:46.990Z,6.80
2023-05-24T14:28:14.024Z,6.33
2023-05-24T14:30:42.139Z,5.80
2023-05-24T14:33:11.577Z,6.37
2023-05-24T14:35:39.878Z,4.07
2023-05-24T14:38:07.765Z,3.33
2023-05-24T14:40:36.883Z,2.37
2023-05-24T14:43:04.902Z,3.07
2023-05-24T14:45:32.090Z,4.13
2023-05-24T14:48:00.937Z,4.40
2023-05-24T14:50:27.918Z,7.63
2023-05-24T14:52:55.725Z,3.43
2023-05-24T14:55:23.285Z,6.87
2023-05-24T14:57:50.442Z,5.40
2023-05-24T15:00:20.621Z,3.60
2023-05-24T15:02:49.399Z,5.90
2023-05-24T15:05:16.834Z,4.10
2023-05-24T15:07:43.651Z,4.27
2023-05-24T15:10:11.133Z,4.73
2023-05-24T15:12:38.181Z,6.13
2023-05-24T15:15:06.826Z,6.47
2023-05-24T15:17:33.859Z,3.00
2023-05-24T15:20:01.449Z,6.17
2023-05-24T15:22:28.399Z,5.20
2023-05-24T15:24:55.556Z,6.50
2023-05-24T15:27:22.805Z,2.20
2023-05-24T15:29:50.527Z,4.73
2023-05-24T15:32:17.434Z,5.67
2023-05-24T15:34:44.389Z,7.10
2023-05-24T15:37:11.213Z,6.07
2023-05-24T15:39:38.140Z,6.37
2023-05-24T15:42:06.115Z,9.27
2023-05-24T15:44:32.989Z,6.37
2023-05-24T15:46:59.826Z,5.47
2023-05-24T15:49:26.796Z,8.50
2023-05-24T15:54:23.265Z,3.87
2023-05-24T15:56:50.376Z,6.20
2023-05-24T15:59:18.128Z,6.93
2023-05-24T16:01:46.664Z,6.97
2023-05-24T16:04:13.626Z,6.93
2023-05-24T16:06:40.616Z,5.83
2023-05-24T16:09:08.177Z,5.63
2023-05-24T16:11:35.835Z,7.30
2023-05-24T16:14:03.670Z,6.37
2023-05-24T16:16:30.693Z,4.73
2023-05-24T16:18:57.494Z,6.70
2023-05-24T16:21:24.544Z,3.10
2023-05-24T16:23:51.668Z,6.73
2023-05-24T16:26:18.625Z,4.37
2023-05-24T16:28:45.608Z,4.40
2023-05-24T16:31:12.604Z,7.43
2023-05-24T16:33:40.831Z,3.37
2023-05-24T16:36:07.858Z,5.20
2023-05-24T16:38:34.797Z,5.83
2023-05-24T16:41:01.676Z,6.67
2023-05-24T16:43:28.756Z,4.27
2023-05-24T16:45:56.167Z,9.07
2023-05-24T16:48:28.381Z,5.40
2023-05-24T16:50:56.785Z,9.63
2023-05-24T16:53:26.165Z,7.23
2023-05-24T16:55:55.822Z,10.60
2023-05-24T16:58:24.234Z,10.63
2023-05-24T17:00:51.267Z,6.87
2023-05-24T17:03:18.269Z,6.67
2023-05-24T17:05:45.206Z,7.27
2023-05-24T17:08:12.097Z,9.33
2023-05-24T17:10:39.061Z,7.80
2023-05-24T17:13:06.259Z,6.43
2023-05-24T17:15:33.086Z,6.23
2023-05-24T17:18:00.468Z,6.43
2023-05-24T17:20:27.458Z,5.37
2023-05-24T17:22:55.725Z,8.07
2023-05-24T17:25:22.828Z,7.07
2023-05-24T17:27:49.614Z,10.57
2023-05-24T17:30:16.551Z,6.33
2023-05-24T17:32:43.435Z,5.43
2023-05-24T17:35:10.455Z,7.07
2023-05-24T17:37:37.364Z,5.77
2023-05-24T17:40:04.464Z,11.63
2023-05-24T17:42:31.404Z,3.50
2023-05-24T17:44:58.193Z,7.30
2023-05-24T17:47:26.125Z,5.67
2023-05-24T17:49:53.059Z,5.93
2023-05-24T17:52:20.019Z,7.13
2023-05-24T17:54:49.372Z,7.33
2023-05-24T17:57:16.342Z,5.27
2023-05-24T17:59:43.096Z,4.07
2023-05-24T18:02:09.922Z,5.53
2023-05-24T18:04:36.789Z,3.97
2023-05-24T18:07:03.832Z,5.40
2023-05-24T18:09:30.794Z,3.47
2023-05-24T18:11:57.784Z,4.33
2023-05-24T18:14:24.634Z,5.80
2023-05-24T18:16:51.702Z,4.53
2023-05-24T18:19:20.592Z,6.20
2023-05-24T18:21:49.381Z,7.90
2023-05-24T18:24:16.415Z,7.57
2023-05-24T18:26:44.655Z,2.80
2023-05-24T18:29:12.672Z,5.77
2023-05-24T18:31:39.764Z,4.17
2023-05-24T18:34:06.639Z,4.50
2023-05-24T18:36:33.502Z,5.87
2023-05-24T18:39:00.315Z,3.77
2023-05-24T18:41:27.269Z,5.07
2023-05-24T18:43:54.130Z,4.43
2023-05-24T18:46:21.451Z,4.77
2023-05-24T18:48:48.384Z,7.47
2023-05-24T18:51:15.250Z,4.20
2023-05-24T18:53:42.239Z,8.30
2023-05-24T18:56:09.270Z,7.53
2023-05-24T18:58:36.208Z,6.30
2023-05-24T19:01:03.104Z,3.40
2023-05-24T19:03:30.032Z,7.60
2023-05-24T19:05:56.849Z,5.87
2023-05-24T19:08:23.760Z,6.77
2023-05-24T19:10:50.532Z,7.13
2023-05-24T19:13:17.580Z,7.30
2023-05-24T19:15:44.613Z,5.53
2023-05-24T19:18:11.698Z,4.80
2023-05-24T19:20:38.814Z,6.73
2023-05-24T19:23:05.955Z,4.77
2023-05-24T19:25:40.582Z,5.90
2023-05-24T19:28:08.561Z,10.47
2023-05-24T19:30:36.891Z,7.63
2023-05-24T19:33:03.977Z,14.27
2023-05-24T19:35:30.991Z,3.73
2023-05-24T19:37:58.046Z,4.60
2023-05-24T19:40:24.847Z,9.67
2023-05-24T19:42:51.773Z,6.83
2023-05-24T19:45:18.673Z,3.53
2023-05-24T19:47:45.658Z,5.73
2023-05-24T19:50:12.585Z,4.83
2023-05-24T19:52:39.428Z,5.73
2023-05-24T19:55:06.955Z,9.43
2023-05-24T19:57:33.769Z,10.07
2023-05-24T20:00:01.505Z,8.07
2023-05-24T20:02:28.788Z,5.93
2023-05-24T20:04:55.998Z,6.20
2023-05-24T20:07:23.019Z,6.87
2023-05-24T20:09:49.968Z,8.30
2023-05-24T20:12:16.783Z,5.43
2023-05-24T20:14:43.557Z,8.43
2023-05-24T20:17:10.473Z,4.60
2023-05-24T20:19:37.447Z,6.10
2023-05-24T20:22:04.505Z,8.23
2023-05-24T20:24:31.297Z,7.33
2023-05-24T20:26:58.144Z,6.23
2023-05-24T20:29:24.988Z,5.33
2023-05-24T20:31:51.969Z,8.87
2023-05-24T20:34:18.782Z,6.83
2023-05-24T20:36:45.801Z,4.67
2023-05-24T20:39:12.714Z,5.73
2023-05-24T20:41:39.651Z,9.23
2023-05-24T20:44:06.692Z,5.90
2023-05-24T20:46:33.965Z,6.87
2023-05-24T20:49:01.063Z,6.07
2023-05-24T20:51:27.876Z,5.57
2023-05-24T20:53:54.807Z,4.80
2023-05-24T20:56:23.101Z,6.70
2023-05-24T20:58:52.985Z,9.40
2023-05-24T21:01:20.920Z,6.30
2023-05-24T21:03:47.867Z,5.90
2023-05-24T21:06:14.813Z,7.97
2023-05-24T21:08:42.681Z,8.40
2023-05-24T21:11:09.569Z,4.97
2023-05-24T21:13:36.491Z,6.93
2023-05-24T21:16:03.465Z,6.37
2023-05-24T21:18:30.462Z,8.90
2023-05-24T21:20:57.283Z,7.27
2023-05-24T21:23:24.178Z,6.33
2023-05-24T21:25:51.105Z,8.93
2023-05-24T21:28:18.218Z,7.17
2023-05-24T21:30:45.028Z,5.87
2023-05-24T21:33:11.887Z,6.40
2023-05-24T21:35:38.736Z,8.00
2023-05-24T21:38:05.739Z,11.43
2023-05-24T21:40:32.565Z,8.50
2023-05-24T21:42:59.328Z,8.43
2023-05-24T21:45:26.179Z,10.77
2023-05-24T21:47:53.050Z,7.30
2023-05-24T21:50:20.022Z,6.20
2023-05-24T21:52:46.883Z,9.60
2023-05-24T21:55:13.859Z,6.07
2023-05-24T21:57:40.787Z,7.67
2023-05-24T22:00:08.967Z,10.70
2023-05-24T22:02:35.873Z,7.13
2023-05-24T22:05:05.247Z,10.03
2023-05-24T22:07:32.297Z,12.20
2023-05-24T22:09:59.114Z,6.33
2023-05-24T22:12:26.045Z,11.73
2023-05-24T22:14:52.904Z,6.40
2023-05-24T22:17:21.923Z,8.80
2023-05-24T22:19:48.989Z,5.80
2023-05-24T22:22:19.805Z,6.40
2023-05-24T22:24:47.322Z,6.43
2023-05-24T22:27:14.676Z,6.77
2023-05-24T22:29:41.497Z,6.83
2023-05-24T22:32:08.378Z,8.47
2023-05-24T22:34:35.321Z,6.07
2023-05-24T22:37:02.151Z,6.00
2023-05-24T22:39:29.066Z,8.57
2023-05-24T22:41:56.093Z,5.93
2023-05-24T22:44:23.039Z,7.90
2023-05-24T22:46:50.037Z,6.40
2023-05-24T22:49:19.768Z,7.70
2023-05-24T22:51:48.110Z,8.90
2023-05-24T22:54:15.281Z,6.77
2023-05-24T22:56:42.212Z,5.13
2023-05-24T22:59:09.200Z,10.57
2023-05-24T23:01:36.275Z,9.10
2023-05-24T23:04:19.068Z,9.10
2023-05-24T23:06:47.840Z,6.67
2023-05-24T23:09:14.753Z,11.20
2023-05-24T23:11:43.047Z,7.67
2023-05-24T23:14:11.559Z,8.27
2023-05-24T23:16:45.427Z,5.60
2023-05-24T23:19:18.316Z,9.50
2023-05-24T23:21:45.466Z,9.27
2023-05-24T23:24:14.682Z,7.30
2023-05-24T23:26:42.271Z,8.67
2023-05-24T23:29:09.305Z,5.83
2023-05-24T23:31:36.616Z,8.40
2023-05-24T23:34:04.864Z,6.63
2023-05-24T23:36:31.761Z,8.97
2023-05-24T23:38:58.680Z,6.00
2023-05-24T23:41:26.538Z,6.87
2023-05-24T23:43:53.435Z,6.07
2023-05-24T23:46:20.456Z,7.80
2023-05-24T23:48:47.786Z,7.13
2023-05-24T23:51:14.587Z,6.60
2023-05-24T23:53:41.434Z,9.10
2023-05-24T23:56:08.231Z,6.17
2023-05-24T23:58:36.024Z,11.37
